Aérodrome :
LOGIN :

S'inscrire | Disclaimer

   EN    FR    IT 

 










Légende :    VFR   VFR Marginal   IFR   IFR Intensif   IFR Très Intensif
Visi : 
Plafond : 
>= 8 km
>= 3000ft
5 à 8 km
1000 à 3000 ft
1500m à 5 km
500 à 1000 ft
800 à 1500m
200 à 500 ft
< 800m
< 200 ft
Symboles :   Orages  Brouillard  Fortes neiges  Fortes précipitations  Vent > 20 kt
SIGMETs :   Divers  Orages  Givrage  Turbulence  Onde Orograph.  Cendres Volcan.






- Altitude de l'aérodrome : 33 ft
- Code IATA : MHZ


EGUN - RAF Mildenhall

DERNIER METAR :
  • 220443Z 14011KT 9999 BKN013 BKN021 OVC031 08/08 A2943 RMK AO2A RAB02E38 CIG 013V026 BKN013 V SCT SLP969 $

METARs EXPIRÉS :
  • 220427Z 13009KT 9999 -RA SCT017 SCT023 BKN029 OVC036 08/08 A2943 RMK AO2A RAB02 CIG 028V037 BKN V SCT SLP969 $
  • 220422Z 13010KT 9999 -RA FEW016 SCT022 BKN037 08/08 A2943 RMK AO2A RAB02 SLP969 $
  • 220402Z 13011KT 9999 -RA SCT014 SCT027 BKN035 08/08 A2943 RMK AO2A RAB02 SLP969 $
  • 220341Z 13009KT 9999 SCT011 BKN024 08/08 A2944 RMK AO2A RAB21E30DZB30E31 CIG 011V024 SLP973 $
  • 220331Z 12008KT 9999 BKN011 BKN021 OVC029 08/08 A2944 RMK AO2A RAB21E30DZB30E31 CIG 010 RWY29 SLP973 $
  • 220301Z 12008KT 9999 OVC010 08/08 A2944 RMK AO2A CIG 009 RWY29 SLP973 $
  • 220207Z 10007KT 9999 BR OVC009 07/07 A2945 RMK AO2A RAE05DZB05E07 CIG 008 RWY29 SLP976 $
  • 220156Z 11008KT 9999 -RA BR OVC009 07/07 A2945 RMK AO2A RAB29 CIG 008 RWY29 SLP976 P0001 T00730073 $
  • 220149Z 11007KT 9999 -RA BR OVC009 07/07 A2946 RMK AO2A RAB29 CIG 008 RWY29 SLP979 $

TAF TAF EGUN
Valide du 22 à 04h jusqu'au 23 à 10h UTC


220400Z 2204/2310 13012KT 9999 BKN020 620409 QNH2942INS
BECMG 2205/2206 12012KT 8000 -RA BKN010 620409 QNH2942INS
BECMG 2209/2210 15010G20KT 9999 NSW BKN015 QNH2942INS
BECMG 2216/2217 13010G20KT 9999 SCT015 BKN130 QNH2937INS
BECMG 2300/2301 12010G20KT 8000 -RA BKN007 620409 QNH2933INS TX09/2300Z TN06/2207Z



MET'MAP, la Météo Aéronautique d'un coup d'oeil ! - Copyright ORBIFLY Décembre 2007 - Disclaimer

ORBIFLY MET'MAP TEAM :

Programmation & Développement : Alexandra Zaïnal
Conception & Développement : Baudouin d'Aumeries
Co-Programmation & Développement : Marc-Olivier Méhu
Soutien technique & logistique : Manuel Goepfert

Contact : metmap@orbifly.com




SOURCES & CREDITS :

   NOAA